Mobirise responsive web design software

MOGADOURO

METAR: LPMU 260125Z 15004KT 05/M06 Q1007
Latest Report: 2018-02-26 01:25:35Z (1 minutes ago)

 07:08 LT      18:10 LT

Location: Lugar da Eira, Azinhoso, 6km NE of Mogadouro
Lat: 412340N Long: 0064104W
Elevation: 714m/2344FT
Runway: 03/21 (1205x22m)
Frequency: 120.100 Mhz

Approved Traffic: VFR / Ultralight Aircraft
Hours of Operation: Open on request PPR, at least 3 hours in advance. Gliders activities from GND to FL095, 20 nm radius on weekends and national holidays

 

 

 

 

 

 

 

 

image
 
 
 
image

PRESENT WEATHER - MOGADOURO

Latest Report: 2018-02-26 01:25:35Z
 

150/04KT

5ºC

-6ºC

1007 hPa

0.00 mm

WEATHER HISTORY

[ All times in Zulu ]

  SEARCH METAR HISTORY
METAR (Last Hour)
LPMU 260120Z 15004KT 05/M05 Q1006
LPMU 260110Z 15004KT 06/M06 Q1007
LPMU 260100Z 15006KT 06/M06 Q1007
LPMU 260050Z 15004KT 06/M06 Q1007
LPMU 260035Z 15004KT 06/M06 Q1007
LPMU 260025Z 15004KT 06/M06 Q1007
Wind Trend (Last Hour)
Average Wind Direction: 150 °
Average Wind Speed: 4 KT
 
Maximum Wind Speed: 8 KT
Maximum Gust: 10 KT
 
Station records since2016-09-15 16:12:44
Minimum Pressure: 990 hPa @ 2017-12-10 19:48:03
Maximum Pressure: 1038 hPa @ 2016-12-24 09:50:07
  
Minimum Temperature: -6° C @ 2017-01-01 06:30:16
Maximum Temperature: 37° C @ 2017-06-17 14:21:09
  
Maximum Wind: 49 KT @ 2017-02-03 03:45:24
Maximum Gust: 70 KT @ 2017-02-02 11:44:49
  
Maximum Daily Rain (mm): 10.16 mm @ 2017-05-05 17:16:03
Days without rain: 14 days (since 2018-02-11 17:24:19)